sensor_id;sensor_type;location;lat;lon;timestamp;P1;durP1;ratioP1;P2;durP2;ratioP2
4646;SDS011;2336;47.822;7.564;2023-06-24T00:00:40;5.23;;;4.93;;
4646;SDS011;2336;47.822;7.564;2023-06-24T00:03:07;4.83;;;4.60;;
4646;SDS011;2336;47.822;7.564;2023-06-24T00:05:34;5.23;;;4.90;;
4646;SDS011;2336;47.822;7.564;2023-06-24T00:08:01;5.70;;;5.20;;
4646;SDS011;2336;47.822;7.564;2023-06-24T00:10:28;4.77;;;4.50;;
4646;SDS011;2336;47.822;7.564;2023-06-24T00:12:56;5.33;;;5.03;;
4646;SDS011;2336;47.822;7.564;2023-06-24T00:15:26;6.40;;;5.60;;
4646;SDS011;2336;47.822;7.564;2023-06-24T00:17:52;5.03;;;4.83;;
4646;SDS011;2336;47.822;7.564;2023-06-24T00:20:24;4.80;;;4.47;;
4646;SDS011;2336;47.822;7.564;2023-06-24T00:22:51;5.30;;;5.00;;
4646;SDS011;2336;47.822;7.564;2023-06-24T00:25:18;5.60;;;5.10;;
4646;SDS011;2336;47.822;7.564;2023-06-24T00:27:44;4.90;;;4.50;;
4646;SDS011;2336;47.822;7.564;2023-06-24T00:30:13;5.50;;;5.20;;
4646;SDS011;2336;47.822;7.564;2023-06-24T00:32:40;4.83;;;4.50;;
4646;SDS011;2336;47.822;7.564;2023-06-24T00:35:07;5.77;;;5.47;;
4646;SDS011;2336;47.822;7.564;2023-06-24T00:37:35;5.50;;;5.10;;
4646;SDS011;2336;47.822;7.564;2023-06-24T00:40:02;5.20;;;4.80;;
4646;SDS011;2336;47.822;7.564;2023-06-24T00:42:31;5.40;;;5.13;;
4646;SDS011;2336;47.822;7.564;2023-06-24T00:44:58;5.27;;;4.97;;
4646;SDS011;2336;47.822;7.564;2023-06-24T00:47:30;5.37;;;4.90;;
4646;SDS011;2336;47.822;7.564;2023-06-24T00:49:57;5.20;;;4.90;;
4646;SDS011;2336;47.822;7.564;2023-06-24T00:52:24;4.97;;;4.77;;
4646;SDS011;2336;47.822;7.564;2023-06-24T00:54:50;5.60;;;5.30;;
4646;SDS011;2336;47.822;7.564;2023-06-24T00:57:17;5.50;;;5.20;;
4646;SDS011;2336;47.822;7.564;2023-06-24T00:59:48;5.03;;;4.73;;
4646;SDS011;2336;47.822;7.564;2023-06-24T01:02:18;5.00;;;4.70;;
4646;SDS011;2336;47.822;7.564;2023-06-24T01:04:47;5.07;;;4.77;;
4646;SDS011;2336;47.822;7.564;2023-06-24T01:07:16;5.37;;;4.97;;
4646;SDS011;2336;47.822;7.564;2023-06-24T01:09:43;7.50;;;4.43;;
4646;SDS011;2336;47.822;7.564;2023-06-24T01:12:10;5.60;;;5.30;;
4646;SDS011;2336;47.822;7.564;2023-06-24T01:14:37;4.80;;;4.50;;
4646;SDS011;2336;47.822;7.564;2023-06-24T01:17:05;5.57;;;5.03;;
4646;SDS011;2336;47.822;7.564;2023-06-24T01:19:44;5.23;;;4.83;;
4646;SDS011;2336;47.822;7.564;2023-06-24T01:22:33;5.37;;;5.07;;
4646;SDS011;2336;47.822;7.564;2023-06-24T01:25:17;5.27;;;4.97;;
4646;SDS011;2336;47.822;7.564;2023-06-24T01:31:00;6.00;;;5.50;;
4646;SDS011;2336;47.822;7.564;2023-06-24T01:33:42;8.17;;;5.97;;
4646;SDS011;2336;47.822;7.564;2023-06-24T01:36:15;5.50;;;5.20;;
4646;SDS011;2336;47.822;7.564;2023-06-24T01:38:47;5.97;;;5.60;;
4646;SDS011;2336;47.822;7.564;2023-06-24T01:41:19;9.23;;;6.30;;
4646;SDS011;2336;47.822;7.564;2023-06-24T01:43:50;5.90;;;5.50;;
4646;SDS011;2336;47.822;7.564;2023-06-24T01:46:19;5.67;;;5.30;;
4646;SDS011;2336;47.822;7.564;2023-06-24T01:48:50;5.70;;;5.40;;
4646;SDS011;2336;47.822;7.564;2023-06-24T01:51:20;5.93;;;5.43;;
4646;SDS011;2336;47.822;7.564;2023-06-24T01:53:51;6.40;;;5.80;;
4646;SDS011;2336;47.822;7.564;2023-06-24T01:56:20;5.40;;;5.10;;
4646;SDS011;2336;47.822;7.564;2023-06-24T01:58:50;5.73;;;5.33;;
4646;SDS011;2336;47.822;7.564;2023-06-24T02:01:19;5.60;;;5.17;;
4646;SDS011;2336;47.822;7.564;2023-06-24T02:03:46;5.30;;;5.00;;
4646;SDS011;2336;47.822;7.564;2023-06-24T02:06:16;5.10;;;4.60;;
4646;SDS011;2336;47.822;7.564;2023-06-24T02:08:44;5.97;;;5.60;;
4646;SDS011;2336;47.822;7.564;2023-06-24T02:11:14;5.50;;;5.20;;
4646;SDS011;2336;47.822;7.564;2023-06-24T02:13:42;5.27;;;5.07;;
4646;SDS011;2336;47.822;7.564;2023-06-24T02:16:09;6.00;;;5.50;;
4646;SDS011;2336;47.822;7.564;2023-06-24T02:18:38;5.93;;;5.63;;
4646;SDS011;2336;47.822;7.564;2023-06-24T02:21:07;5.50;;;5.20;;
4646;SDS011;2336;47.822;7.564;2023-06-24T02:23:36;5.53;;;5.13;;
4646;SDS011;2336;47.822;7.564;2023-06-24T02:26:03;5.50;;;5.20;;
4646;SDS011;2336;47.822;7.564;2023-06-24T02:28:32;5.50;;;5.00;;
4646;SDS011;2336;47.822;7.564;2023-06-24T02:31:00;5.73;;;5.23;;
4646;SDS011;2336;47.822;7.564;2023-06-24T02:33:27;5.27;;;4.97;;
4646;SDS011;2336;47.822;7.564;2023-06-24T02:35:54;5.93;;;5.43;;
4646;SDS011;2336;47.822;7.564;2023-06-24T02:38:21;6.07;;;5.57;;
4646;SDS011;2336;47.822;7.564;2023-06-24T02:40:49;5.80;;;5.40;;
4646;SDS011;2336;47.822;7.564;2023-06-24T02:43:18;5.97;;;5.60;;
4646;SDS011;2336;47.822;7.564;2023-06-24T02:45:45;6.13;;;5.63;;
4646;SDS011;2336;47.822;7.564;2023-06-24T02:48:13;6.63;;;6.13;;
4646;SDS011;2336;47.822;7.564;2023-06-24T02:50:41;6.40;;;5.90;;
4646;SDS011;2336;47.822;7.564;2023-06-24T02:53:09;5.83;;;5.40;;
4646;SDS011;2336;47.822;7.564;2023-06-24T02:55:37;5.57;;;5.27;;
4646;SDS011;2336;47.822;7.564;2023-06-24T02:58:08;6.07;;;5.67;;
4646;SDS011;2336;47.822;7.564;2023-06-24T03:00:35;6.40;;;5.90;;
4646;SDS011;2336;47.822;7.564;2023-06-24T03:03:03;5.60;;;5.30;;
4646;SDS011;2336;47.822;7.564;2023-06-24T03:05:31;5.63;;;5.13;;
4646;SDS011;2336;47.822;7.564;2023-06-24T03:07:58;6.00;;;5.53;;
4646;SDS011;2336;47.822;7.564;2023-06-24T03:10:27;6.07;;;5.67;;
4646;SDS011;2336;47.822;7.564;2023-06-24T03:12:54;5.97;;;5.57;;
4646;SDS011;2336;47.822;7.564;2023-06-24T03:15:22;5.93;;;5.53;;
4646;SDS011;2336;47.822;7.564;2023-06-24T03:17:49;6.17;;;5.67;;
4646;SDS011;2336;47.822;7.564;2023-06-24T03:20:17;6.20;;;5.90;;
4646;SDS011;2336;47.822;7.564;2023-06-24T03:22:44;6.90;;;6.00;;
4646;SDS011;2336;47.822;7.564;2023-06-24T03:25:10;6.50;;;5.90;;
4646;SDS011;2336;47.822;7.564;2023-06-24T03:27:37;6.90;;;6.40;;
4646;SDS011;2336;47.822;7.564;2023-06-24T03:30:04;6.57;;;6.17;;
4646;SDS011;2336;47.822;7.564;2023-06-24T03:32:33;6.70;;;6.10;;
4646;SDS011;2336;47.822;7.564;2023-06-24T03:35:01;6.40;;;6.00;;
4646;SDS011;2336;47.822;7.564;2023-06-24T03:37:28;6.07;;;5.77;;
4646;SDS011;2336;47.822;7.564;2023-06-24T03:39:55;6.57;;;6.17;;
4646;SDS011;2336;47.822;7.564;2023-06-24T03:42:22;7.23;;;6.50;;
4646;SDS011;2336;47.822;7.564;2023-06-24T03:44:49;8.80;;;7.07;;
4646;SDS011;2336;47.822;7.564;2023-06-24T03:47:16;7.03;;;6.60;;
4646;SDS011;2336;47.822;7.564;2023-06-24T03:49:44;7.47;;;6.67;;
4646;SDS011;2336;47.822;7.564;2023-06-24T03:52:10;6.73;;;6.23;;
4646;SDS011;2336;47.822;7.564;2023-06-24T03:54:37;7.40;;;6.80;;
4646;SDS011;2336;47.822;7.564;2023-06-24T03:57:05;7.37;;;6.77;;
4646;SDS011;2336;47.822;7.564;2023-06-24T03:59:33;7.07;;;6.67;;
4646;SDS011;2336;47.822;7.564;2023-06-24T04:01:59;12.80;;;6.47;;
4646;SDS011;2336;47.822;7.564;2023-06-24T04:04:26;8.37;;;6.70;;
4646;SDS011;2336;47.822;7.564;2023-06-24T04:06:54;8.40;;;7.53;;
4646;SDS011;2336;47.822;7.564;2023-06-24T04:09:22;7.50;;;6.90;;
4646;SDS011;2336;47.822;7.564;2023-06-24T04:11:49;6.83;;;6.13;;
4646;SDS011;2336;47.822;7.564;2023-06-24T04:14:16;7.63;;;6.63;;
4646;SDS011;2336;47.822;7.564;2023-06-24T04:16:42;7.40;;;6.10;;
4646;SDS011;2336;47.822;7.564;2023-06-24T04:19:09;7.47;;;6.60;;
4646;SDS011;2336;47.822;7.564;2023-06-24T04:21:36;7.27;;;6.60;;
4646;SDS011;2336;47.822;7.564;2023-06-24T04:24:05;7.00;;;6.60;;
4646;SDS011;2336;47.822;7.564;2023-06-24T04:26:31;7.50;;;6.50;;
4646;SDS011;2336;47.822;7.564;2023-06-24T04:28:58;7.80;;;6.00;;
4646;SDS011;2336;47.822;7.564;2023-06-24T04:31:25;8.60;;;6.27;;
4646;SDS011;2336;47.822;7.564;2023-06-24T04:33:53;9.10;;;6.37;;
4646;SDS011;2336;47.822;7.564;2023-06-24T04:36:19;6.60;;;6.20;;
4646;SDS011;2336;47.822;7.564;2023-06-24T04:38:46;6.83;;;6.23;;
4646;SDS011;2336;47.822;7.564;2023-06-24T04:41:14;7.37;;;6.67;;
4646;SDS011;2336;47.822;7.564;2023-06-24T04:43:41;6.47;;;5.97;;
4646;SDS011;2336;47.822;7.564;2023-06-24T04:46:07;6.27;;;5.67;;
4646;SDS011;2336;47.822;7.564;2023-06-24T04:48:34;8.77;;;5.77;;
4646;SDS011;2336;47.822;7.564;2023-06-24T04:51:01;5.90;;;5.60;;
4646;SDS011;2336;47.822;7.564;2023-06-24T04:53:27;6.07;;;5.67;;
4646;SDS011;2336;47.822;7.564;2023-06-24T04:55:54;5.73;;;5.30;;
4646;SDS011;2336;47.822;7.564;2023-06-24T04:58:22;5.93;;;5.47;;
4646;SDS011;2336;47.822;7.564;2023-06-24T05:00:49;6.27;;;5.60;;
4646;SDS011;2336;47.822;7.564;2023-06-24T05:03:15;6.10;;;5.60;;
4646;SDS011;2336;47.822;7.564;2023-06-24T05:05:42;7.23;;;6.03;;
4646;SDS011;2336;47.822;7.564;2023-06-24T05:08:09;6.80;;;6.40;;
4646;SDS011;2336;47.822;7.564;2023-06-24T05:10:36;8.13;;;7.43;;
4646;SDS011;2336;47.822;7.564;2023-06-24T05:13:02;7.17;;;6.47;;
4646;SDS011;2336;47.822;7.564;2023-06-24T05:15:30;7.40;;;6.67;;
4646;SDS011;2336;47.822;7.564;2023-06-24T05:17:57;7.83;;;7.13;;
4646;SDS011;2336;47.822;7.564;2023-06-24T05:20:24;11.90;;;7.23;;
4646;SDS011;2336;47.822;7.564;2023-06-24T05:22:51;10.73;;;6.70;;
4646;SDS011;2336;47.822;7.564;2023-06-24T05:25:17;8.17;;;7.47;;
4646;SDS011;2336;47.822;7.564;2023-06-24T05:27:44;7.73;;;7.07;;
4646;SDS011;2336;47.822;7.564;2023-06-24T05:30:11;7.57;;;6.97;;
4646;SDS011;2336;47.822;7.564;2023-06-24T05:32:40;7.50;;;6.77;;
4646;SDS011;2336;47.822;7.564;2023-06-24T05:35:07;8.20;;;7.43;;
4646;SDS011;2336;47.822;7.564;2023-06-24T05:37:34;8.40;;;7.00;;
4646;SDS011;2336;47.822;7.564;2023-06-24T05:40:01;16.90;;;7.20;;
4646;SDS011;2336;47.822;7.564;2023-06-24T05:42:30;7.00;;;6.40;;
4646;SDS011;2336;47.822;7.564;2023-06-24T05:44:56;8.57;;;7.80;;
4646;SDS011;2336;47.822;7.564;2023-06-24T05:47:23;9.30;;;7.90;;
4646;SDS011;2336;47.822;7.564;2023-06-24T05:49:51;8.30;;;7.43;;
4646;SDS011;2336;47.822;7.564;2023-06-24T05:52:18;8.83;;;7.80;;
4646;SDS011;2336;47.822;7.564;2023-06-24T05:54:44;7.83;;;7.23;;
4646;SDS011;2336;47.822;7.564;2023-06-24T05:57:11;8.87;;;7.97;;
4646;SDS011;2336;47.822;7.564;2023-06-24T05:59:38;9.07;;;8.27;;
4646;SDS011;2336;47.822;7.564;2023-06-24T06:02:05;8.87;;;7.70;;
4646;SDS011;2336;47.822;7.564;2023-06-24T06:04:31;9.70;;;8.33;;
4646;SDS011;2336;47.822;7.564;2023-06-24T06:06:59;7.53;;;7.03;;
4646;SDS011;2336;47.822;7.564;2023-06-24T06:09:26;10.30;;;9.23;;
4646;SDS011;2336;47.822;7.564;2023-06-24T06:11:53;11.57;;;10.10;;
4646;SDS011;2336;47.822;7.564;2023-06-24T06:14:19;15.10;;;10.27;;
4646;SDS011;2336;47.822;7.564;2023-06-24T06:16:46;9.40;;;8.53;;
4646;SDS011;2336;47.822;7.564;2023-06-24T06:19:13;8.57;;;7.97;;
4646;SDS011;2336;47.822;7.564;2023-06-24T06:21:39;9.37;;;8.57;;
4646;SDS011;2336;47.822;7.564;2023-06-24T06:24:08;9.33;;;8.63;;
4646;SDS011;2336;47.822;7.564;2023-06-24T06:26:34;9.60;;;8.90;;
4646;SDS011;2336;47.822;7.564;2023-06-24T06:29:06;9.70;;;8.90;;
4646;SDS011;2336;47.822;7.564;2023-06-24T06:31:33;10.87;;;9.93;;
4646;SDS011;2336;47.822;7.564;2023-06-24T06:33:59;9.43;;;8.63;;
4646;SDS011;2336;47.822;7.564;2023-06-24T06:36:26;9.20;;;8.40;;
4646;SDS011;2336;47.822;7.564;2023-06-24T06:38:53;8.73;;;8.10;;
4646;SDS011;2336;47.822;7.564;2023-06-24T06:41:21;10.00;;;9.00;;
4646;SDS011;2336;47.822;7.564;2023-06-24T06:43:49;9.47;;;8.77;;
4646;SDS011;2336;47.822;7.564;2023-06-24T06:46:16;10.33;;;9.30;;
4646;SDS011;2336;47.822;7.564;2023-06-24T06:48:43;7.77;;;7.17;;
4646;SDS011;2336;47.822;7.564;2023-06-24T06:51:09;12.20;;;8.53;;
4646;SDS011;2336;47.822;7.564;2023-06-24T06:53:36;9.73;;;8.43;;
4646;SDS011;2336;47.822;7.564;2023-06-24T06:56:03;8.27;;;7.63;;
4646;SDS011;2336;47.822;7.564;2023-06-24T06:58:31;8.33;;;7.70;;
4646;SDS011;2336;47.822;7.564;2023-06-24T07:00:58;9.67;;;8.60;;
4646;SDS011;2336;47.822;7.564;2023-06-24T07:03:30;8.30;;;7.40;;
4646;SDS011;2336;47.822;7.564;2023-06-24T07:05:56;8.50;;;7.90;;
4646;SDS011;2336;47.822;7.564;2023-06-24T07:08:23;8.20;;;7.50;;
4646;SDS011;2336;47.822;7.564;2023-06-24T07:10:50;12.50;;;10.47;;
4646;SDS011;2336;47.822;7.564;2023-06-24T07:13:17;11.03;;;10.10;;
4646;SDS011;2336;47.822;7.564;2023-06-24T07:15:45;9.67;;;8.90;;
4646;SDS011;2336;47.822;7.564;2023-06-24T07:18:11;9.23;;;8.50;;
4646;SDS011;2336;47.822;7.564;2023-06-24T07:20:38;9.20;;;8.30;;
4646;SDS011;2336;47.822;7.564;2023-06-24T07:23:05;10.07;;;9.23;;
4646;SDS011;2336;47.822;7.564;2023-06-24T07:25:31;9.53;;;8.83;;
4646;SDS011;2336;47.822;7.564;2023-06-24T07:27:59;8.77;;;8.07;;
4646;SDS011;2336;47.822;7.564;2023-06-24T07:30:26;8.17;;;7.47;;
4646;SDS011;2336;47.822;7.564;2023-06-24T07:32:54;8.53;;;7.93;;
4646;SDS011;2336;47.822;7.564;2023-06-24T07:35:20;8.30;;;7.63;;
4646;SDS011;2336;47.822;7.564;2023-06-24T07:37:48;7.97;;;7.37;;
4646;SDS011;2336;47.822;7.564;2023-06-24T07:40:14;8.03;;;7.33;;
4646;SDS011;2336;47.822;7.564;2023-06-24T07:42:41;9.27;;;8.47;;
4646;SDS011;2336;47.822;7.564;2023-06-24T07:45:08;7.23;;;6.67;;
4646;SDS011;2336;47.822;7.564;2023-06-24T07:47:35;9.17;;;8.40;;
4646;SDS011;2336;47.822;7.564;2023-06-24T07:50:04;9.33;;;8.40;;
4646;SDS011;2336;47.822;7.564;2023-06-24T07:52:31;8.17;;;7.43;;
4646;SDS011;2336;47.822;7.564;2023-06-24T07:54:58;8.77;;;8.07;;
4646;SDS011;2336;47.822;7.564;2023-06-24T07:57:26;8.47;;;7.77;;
4646;SDS011;2336;47.822;7.564;2023-06-24T07:59:53;7.43;;;6.93;;
4646;SDS011;2336;47.822;7.564;2023-06-24T08:02:19;7.93;;;7.30;;
4646;SDS011;2336;47.822;7.564;2023-06-24T08:04:46;8.73;;;8.00;;
4646;SDS011;2336;47.822;7.564;2023-06-24T08:07:14;9.03;;;8.20;;
4646;SDS011;2336;47.822;7.564;2023-06-24T08:09:41;9.00;;;8.20;;
4646;SDS011;2336;47.822;7.564;2023-06-24T08:12:08;8.30;;;7.70;;
4646;SDS011;2336;47.822;7.564;2023-06-24T08:14:35;6.17;;;5.77;;
4646;SDS011;2336;47.822;7.564;2023-06-24T08:17:02;7.20;;;6.70;;
4646;SDS011;2336;47.822;7.564;2023-06-24T08:19:29;10.53;;;6.80;;
4646;SDS011;2336;47.822;7.564;2023-06-24T08:21:56;5.40;;;5.10;;
4646;SDS011;2336;47.822;7.564;2023-06-24T08:24:24;6.00;;;5.70;;
4646;SDS011;2336;47.822;7.564;2023-06-24T08:26:51;6.87;;;6.37;;
4646;SDS011;2336;47.822;7.564;2023-06-24T08:29:18;8.10;;;6.47;;
4646;SDS011;2336;47.822;7.564;2023-06-24T08:31:45;6.67;;;6.23;;
4646;SDS011;2336;47.822;7.564;2023-06-24T08:34:12;6.40;;;5.93;;
4646;SDS011;2336;47.822;7.564;2023-06-24T08:36:38;7.27;;;6.67;;
4646;SDS011;2336;47.822;7.564;2023-06-24T08:39:05;6.60;;;6.20;;
4646;SDS011;2336;47.822;7.564;2023-06-24T08:41:33;6.53;;;6.13;;
4646;SDS011;2336;47.822;7.564;2023-06-24T08:44:00;7.20;;;6.60;;
4646;SDS011;2336;47.822;7.564;2023-06-24T08:46:27;7.33;;;6.80;;
4646;SDS011;2336;47.822;7.564;2023-06-24T08:48:58;7.20;;;6.57;;
4646;SDS011;2336;47.822;7.564;2023-06-24T08:51:29;6.80;;;6.20;;
4646;SDS011;2336;47.822;7.564;2023-06-24T08:54:01;7.10;;;6.50;;
4646;SDS011;2336;47.822;7.564;2023-06-24T08:56:28;5.90;;;5.60;;
4646;SDS011;2336;47.822;7.564;2023-06-24T08:58:56;6.73;;;6.23;;
4646;SDS011;2336;47.822;7.564;2023-06-24T09:01:23;5.80;;;5.40;;
4646;SDS011;2336;47.822;7.564;2023-06-24T09:03:51;6.67;;;6.17;;
4646;SDS011;2336;47.822;7.564;2023-06-24T09:06:18;5.70;;;5.40;;
4646;SDS011;2336;47.822;7.564;2023-06-24T09:08:51;6.30;;;5.80;;
4646;SDS011;2336;47.822;7.564;2023-06-24T09:11:21;6.27;;;5.87;;
4646;SDS011;2336;47.822;7.564;2023-06-24T09:13:51;6.17;;;5.73;;
4646;SDS011;2336;47.822;7.564;2023-06-24T09:16:22;6.10;;;5.60;;
4646;SDS011;2336;47.822;7.564;2023-06-24T09:18:49;6.43;;;5.93;;
4646;SDS011;2336;47.822;7.564;2023-06-24T09:21:23;5.90;;;5.40;;
4646;SDS011;2336;47.822;7.564;2023-06-24T09:23:52;6.13;;;5.60;;
4646;SDS011;2336;47.822;7.564;2023-06-24T09:26:19;6.50;;;6.10;;
4646;SDS011;2336;47.822;7.564;2023-06-24T09:28:48;6.30;;;5.70;;
4646;SDS011;2336;47.822;7.564;2023-06-24T09:31:16;6.17;;;5.70;;
4646;SDS011;2336;47.822;7.564;2023-06-24T09:33:45;6.57;;;6.00;;
4646;SDS011;2336;47.822;7.564;2023-06-24T09:36:13;5.97;;;5.60;;
4646;SDS011;2336;47.822;7.564;2023-06-24T09:38:40;7.23;;;5.93;;
4646;SDS011;2336;47.822;7.564;2023-06-24T09:41:09;6.00;;;5.60;;
4646;SDS011;2336;47.822;7.564;2023-06-24T09:43:37;6.77;;;6.27;;
4646;SDS011;2336;47.822;7.564;2023-06-24T09:46:05;5.93;;;5.53;;
4646;SDS011;2336;47.822;7.564;2023-06-24T09:48:32;5.60;;;5.30;;
4646;SDS011;2336;47.822;7.564;2023-06-24T09:51:01;9.90;;;5.17;;
4646;SDS011;2336;47.822;7.564;2023-06-24T09:53:30;5.07;;;4.77;;
4646;SDS011;2336;47.822;7.564;2023-06-24T09:55:57;6.40;;;5.30;;
4646;SDS011;2336;47.822;7.564;2023-06-24T09:58:26;5.60;;;5.30;;
4646;SDS011;2336;47.822;7.564;2023-06-24T10:00:57;4.93;;;4.73;;
4646;SDS011;2336;47.822;7.564;2023-06-24T10:03:26;5.60;;;5.20;;
4646;SDS011;2336;47.822;7.564;2023-06-24T10:05:53;5.87;;;5.10;;
4646;SDS011;2336;47.822;7.564;2023-06-24T10:08:21;4.37;;;4.13;;
4646;SDS011;2336;47.822;7.564;2023-06-24T10:10:48;5.00;;;4.67;;
4646;SDS011;2336;47.822;7.564;2023-06-24T10:13:15;4.33;;;3.93;;
4646;SDS011;2336;47.822;7.564;2023-06-24T10:15:42;4.57;;;4.37;;
4646;SDS011;2336;47.822;7.564;2023-06-24T10:21:00;4.20;;;3.90;;
4646;SDS011;2336;47.822;7.564;2023-06-24T10:23:31;4.63;;;4.43;;
4646;SDS011;2336;47.822;7.564;2023-06-24T10:25:58;4.13;;;3.83;;
4646;SDS011;2336;47.822;7.564;2023-06-24T10:28:25;3.73;;;3.53;;
4646;SDS011;2336;47.822;7.564;2023-06-24T10:30:56;4.27;;;4.00;;
4646;SDS011;2336;47.822;7.564;2023-06-24T10:33:23;4.97;;;4.60;;
4646;SDS011;2336;47.822;7.564;2023-06-24T10:35:50;4.60;;;4.40;;
4646;SDS011;2336;47.822;7.564;2023-06-24T10:38:17;4.83;;;4.53;;
4646;SDS011;2336;47.822;7.564;2023-06-24T10:40:46;4.30;;;4.00;;
4646;SDS011;2336;47.822;7.564;2023-06-24T10:43:28;3.90;;;3.80;;
4646;SDS011;2336;47.822;7.564;2023-06-24T10:45:56;3.83;;;3.73;;
4646;SDS011;2336;47.822;7.564;2023-06-24T10:48:23;4.13;;;3.93;;
4646;SDS011;2336;47.822;7.564;2023-06-24T10:50:50;4.20;;;4.00;;
4646;SDS011;2336;47.822;7.564;2023-06-24T10:53:17;3.90;;;3.70;;
4646;SDS011;2336;47.822;7.564;2023-06-24T10:55:45;4.00;;;3.80;;
4646;SDS011;2336;47.822;7.564;2023-06-24T10:58:13;4.10;;;3.80;;
4646;SDS011;2336;47.822;7.564;2023-06-24T11:00:40;7.07;;;4.00;;
4646;SDS011;2336;47.822;7.564;2023-06-24T11:03:09;3.83;;;3.67;;
4646;SDS011;2336;47.822;7.564;2023-06-24T11:05:38;4.60;;;4.40;;
4646;SDS011;2336;47.822;7.564;2023-06-24T11:08:06;3.40;;;3.30;;
4646;SDS011;2336;47.822;7.564;2023-06-24T11:10:33;3.67;;;3.50;;
4646;SDS011;2336;47.822;7.564;2023-06-24T11:13:05;3.50;;;3.40;;
4646;SDS011;2336;47.822;7.564;2023-06-24T11:15:32;4.10;;;3.90;;
4646;SDS011;2336;47.822;7.564;2023-06-24T11:18:01;4.30;;;4.00;;
4646;SDS011;2336;47.822;7.564;2023-06-24T11:20:29;4.23;;;4.03;;
4646;SDS011;2336;47.822;7.564;2023-06-24T11:22:56;3.83;;;3.63;;
4646;SDS011;2336;47.822;7.564;2023-06-24T11:25:22;4.83;;;4.43;;
4646;SDS011;2336;47.822;7.564;2023-06-24T11:27:49;4.07;;;3.70;;
4646;SDS011;2336;47.822;7.564;2023-06-24T11:30:19;3.70;;;3.60;;
4646;SDS011;2336;47.822;7.564;2023-06-24T11:32:46;4.17;;;3.97;;
4646;SDS011;2336;47.822;7.564;2023-06-24T11:35:15;4.07;;;3.87;;
4646;SDS011;2336;47.822;7.564;2023-06-24T11:37:42;4.07;;;3.50;;
4646;SDS011;2336;47.822;7.564;2023-06-24T11:40:10;3.93;;;3.63;;
4646;SDS011;2336;47.822;7.564;2023-06-24T11:42:38;4.17;;;3.90;;
4646;SDS011;2336;47.822;7.564;2023-06-24T11:45:06;3.83;;;3.63;;
4646;SDS011;2336;47.822;7.564;2023-06-24T11:47:36;4.20;;;4.00;;
4646;SDS011;2336;47.822;7.564;2023-06-24T11:50:05;3.97;;;3.87;;
4646;SDS011;2336;47.822;7.564;2023-06-24T11:52:37;3.80;;;3.60;;
4646;SDS011;2336;47.822;7.564;2023-06-24T11:55:10;4.60;;;4.37;;
4646;SDS011;2336;47.822;7.564;2023-06-24T11:57:49;3.90;;;3.70;;
4646;SDS011;2336;47.822;7.564;2023-06-24T12:00:18;4.27;;;4.07;;
4646;SDS011;2336;47.822;7.564;2023-06-24T12:02:48;4.03;;;3.83;;
4646;SDS011;2336;47.822;7.564;2023-06-24T12:05:19;3.87;;;3.67;;
4646;SDS011;2336;47.822;7.564;2023-06-24T12:07:50;4.17;;;3.97;;
4646;SDS011;2336;47.822;7.564;2023-06-24T12:10:18;3.83;;;3.63;;
4646;SDS011;2336;47.822;7.564;2023-06-24T12:12:45;3.83;;;3.53;;
4646;SDS011;2336;47.822;7.564;2023-06-24T12:15:11;3.80;;;3.70;;
4646;SDS011;2336;47.822;7.564;2023-06-24T12:17:38;4.50;;;4.17;;
4646;SDS011;2336;47.822;7.564;2023-06-24T12:20:07;5.00;;;4.60;;
4646;SDS011;2336;47.822;7.564;2023-06-24T12:22:35;4.30;;;4.00;;
4646;SDS011;2336;47.822;7.564;2023-06-24T12:25:02;3.73;;;3.63;;
4646;SDS011;2336;47.822;7.564;2023-06-24T12:27:29;3.90;;;3.73;;
4646;SDS011;2336;47.822;7.564;2023-06-24T12:29:56;3.90;;;3.50;;
4646;SDS011;2336;47.822;7.564;2023-06-24T12:32:23;4.27;;;4.07;;
4646;SDS011;2336;47.822;7.564;2023-06-24T12:34:49;3.53;;;3.43;;
4646;SDS011;2336;47.822;7.564;2023-06-24T12:37:17;3.50;;;3.30;;
4646;SDS011;2336;47.822;7.564;2023-06-24T12:39:44;3.23;;;3.13;;
4646;SDS011;2336;47.822;7.564;2023-06-24T12:42:12;3.57;;;3.47;;
4646;SDS011;2336;47.822;7.564;2023-06-24T12:44:38;3.90;;;3.47;;
4646;SDS011;2336;47.822;7.564;2023-06-24T12:47:05;3.57;;;3.47;;
4646;SDS011;2336;47.822;7.564;2023-06-24T12:49:32;3.93;;;3.83;;
4646;SDS011;2336;47.822;7.564;2023-06-24T12:51:59;3.87;;;3.60;;
4646;SDS011;2336;47.822;7.564;2023-06-24T12:54:28;3.50;;;3.40;;
4646;SDS011;2336;47.822;7.564;2023-06-24T12:56:55;3.33;;;3.23;;
4646;SDS011;2336;47.822;7.564;2023-06-24T12:59:22;3.50;;;3.40;;
4646;SDS011;2336;47.822;7.564;2023-06-24T13:01:49;3.80;;;3.50;;
4646;SDS011;2336;47.822;7.564;2023-06-24T13:04:16;3.97;;;3.87;;
4646;SDS011;2336;47.822;7.564;2023-06-24T13:06:44;3.43;;;3.23;;
4646;SDS011;2336;47.822;7.564;2023-06-24T13:09:11;3.63;;;3.53;;
4646;SDS011;2336;47.822;7.564;2023-06-24T13:11:39;3.80;;;3.70;;
4646;SDS011;2336;47.822;7.564;2023-06-24T13:14:06;4.23;;;4.00;;
4646;SDS011;2336;47.822;7.564;2023-06-24T13:16:34;3.80;;;3.70;;
4646;SDS011;2336;47.822;7.564;2023-06-24T13:19:01;3.33;;;3.23;;
4646;SDS011;2336;47.822;7.564;2023-06-24T13:21:28;4.03;;;3.63;;
4646;SDS011;2336;47.822;7.564;2023-06-24T13:23:55;3.80;;;3.60;;
4646;SDS011;2336;47.822;7.564;2023-06-24T13:26:22;3.40;;;3.30;;
4646;SDS011;2336;47.822;7.564;2023-06-24T13:28:50;3.73;;;3.53;;
4646;SDS011;2336;47.822;7.564;2023-06-24T13:31:17;4.17;;;3.87;;
4646;SDS011;2336;47.822;7.564;2023-06-24T13:33:44;3.40;;;3.30;;
4646;SDS011;2336;47.822;7.564;2023-06-24T13:36:11;3.80;;;3.70;;
4646;SDS011;2336;47.822;7.564;2023-06-24T13:38:55;3.50;;;3.30;;
4646;SDS011;2336;47.822;7.564;2023-06-24T13:41:21;4.60;;;4.40;;
4646;SDS011;2336;47.822;7.564;2023-06-24T13:43:48;3.33;;;3.20;;
4646;SDS011;2336;47.822;7.564;2023-06-24T13:46:17;3.40;;;3.20;;
4646;SDS011;2336;47.822;7.564;2023-06-24T13:48:43;3.77;;;3.57;;
4646;SDS011;2336;47.822;7.564;2023-06-24T13:51:10;7.93;;;4.40;;
4646;SDS011;2336;47.822;7.564;2023-06-24T13:53:37;3.70;;;3.60;;
4646;SDS011;2336;47.822;7.564;2023-06-24T13:56:03;6.10;;;3.60;;
4646;SDS011;2336;47.822;7.564;2023-06-24T13:58:30;3.33;;;3.23;;
4646;SDS011;2336;47.822;7.564;2023-06-24T14:00:58;3.20;;;3.10;;
4646;SDS011;2336;47.822;7.564;2023-06-24T14:03:25;3.30;;;3.20;;
4646;SDS011;2336;47.822;7.564;2023-06-24T14:05:51;3.30;;;3.20;;
4646;SDS011;2336;47.822;7.564;2023-06-24T14:08:18;3.80;;;3.70;;
4646;SDS011;2336;47.822;7.564;2023-06-24T14:10:45;3.27;;;3.17;;
4646;SDS011;2336;47.822;7.564;2023-06-24T14:13:12;3.50;;;3.40;;
4646;SDS011;2336;47.822;7.564;2023-06-24T14:15:38;3.43;;;3.33;;
4646;SDS011;2336;47.822;7.564;2023-06-24T14:18:07;3.40;;;3.30;;
4646;SDS011;2336;47.822;7.564;2023-06-24T14:20:34;3.23;;;3.13;;
4646;SDS011;2336;47.822;7.564;2023-06-24T14:23:00;3.67;;;3.40;;
4646;SDS011;2336;47.822;7.564;2023-06-24T14:25:27;3.50;;;3.20;;
4646;SDS011;2336;47.822;7.564;2023-06-24T14:27:54;3.13;;;3.03;;
4646;SDS011;2336;47.822;7.564;2023-06-24T14:30:21;3.60;;;3.50;;
4646;SDS011;2336;47.822;7.564;2023-06-24T14:32:47;3.30;;;3.10;;
4646;SDS011;2336;47.822;7.564;2023-06-24T14:35:15;2.93;;;2.83;;
4646;SDS011;2336;47.822;7.564;2023-06-24T14:37:42;2.93;;;2.83;;
4646;SDS011;2336;47.822;7.564;2023-06-24T14:40:09;3.30;;;3.10;;
4646;SDS011;2336;47.822;7.564;2023-06-24T14:42:36;3.20;;;3.10;;
4646;SDS011;2336;47.822;7.564;2023-06-24T14:45:03;3.30;;;3.20;;
4646;SDS011;2336;47.822;7.564;2023-06-24T14:47:30;3.20;;;3.10;;
4646;SDS011;2336;47.822;7.564;2023-06-24T14:49:57;2.97;;;2.87;;
4646;SDS011;2336;47.822;7.564;2023-06-24T14:52:25;3.10;;;3.00;;
4646;SDS011;2336;47.822;7.564;2023-06-24T14:54:52;3.10;;;2.93;;
4646;SDS011;2336;47.822;7.564;2023-06-24T14:57:20;3.07;;;2.97;;
4646;SDS011;2336;47.822;7.564;2023-06-24T14:59:48;2.80;;;2.70;;
4646;SDS011;2336;47.822;7.564;2023-06-24T15:02:15;3.23;;;3.00;;
4646;SDS011;2336;47.822;7.564;2023-06-24T15:04:42;3.10;;;3.00;;
4646;SDS011;2336;47.822;7.564;2023-06-24T15:07:09;3.37;;;3.20;;
4646;SDS011;2336;47.822;7.564;2023-06-24T15:09:37;2.70;;;2.60;;
4646;SDS011;2336;47.822;7.564;2023-06-24T15:12:04;3.47;;;3.27;;
4646;SDS011;2336;47.822;7.564;2023-06-24T15:14:31;2.40;;;2.30;;
4646;SDS011;2336;47.822;7.564;2023-06-24T15:16:58;3.03;;;2.83;;
4646;SDS011;2336;47.822;7.564;2023-06-24T15:19:24;3.37;;;2.87;;
4646;SDS011;2336;47.822;7.564;2023-06-24T15:21:51;3.30;;;3.13;;
4646;SDS011;2336;47.822;7.564;2023-06-24T15:24:18;3.40;;;3.20;;